Time;durP1;ratioP1;P1;durP2;ratioP2;P2;SDS_P1;SDS_P2;PMS_P1;PMS_P2;Temp;Humidity;BMP_temperature;BMP_pressure;BME280_temperature;BME280_humidity;BME280_pressure;Samples;Min_cycle;Max_cycle;Signal;HPM_P1;HPM_P2
2023/09/05 00:01:57;;;;;;;0.20;0.20;;;;;;;21.21;44.76;100684.87;5305349;26;34808;-88
2023/09/05 00:04:26;;;;;;;0.80;0.43;;;;;;;21.57;43.97;100693.88;5305695;26;33526;-88
2023/09/05 00:06:53;;;;;;;0.03;0.03;;;;;;;21.48;44.08;100682.00;5324319;26;33687;-88
2023/09/05 00:09:21;;;;;;;0.68;0.47;;;;;;;21.26;45.01;100678.31;5287289;26;32660;-88
2023/09/05 00:11:50;;;;;;;0.50;0.50;;;;;;;21.24;45.01;100681.13;5287499;26;32734;-88
2023/09/05 00:14:20;;;;;;;0.35;0.35;;;;;;;21.14;45.20;100678.25;5305551;26;32064;-87
2023/09/05 00:16:48;;;;;;;0.55;0.30;;;;;;;20.86;46.40;100675.88;5323512;26;34001;-89
2023/09/05 00:19:16;;;;;;;0.52;0.40;;;;;;;20.99;46.24;100683.91;5287668;26;33016;-88
2023/09/05 00:21:43;;;;;;;0.03;0.03;;;;;;;20.99;46.38;100675.84;5287231;26;33746;-88
2023/09/05 00:24:36;;;;;;;1.35;0.93;;;;;;;20.90;46.80;100661.25;5305637;26;34110;-87
2023/09/05 00:27:09;;;;;;;0.25;0.25;;;;;;;20.83;47.19;100663.53;5287552;26;32610;-87
2023/09/05 00:29:38;;;;;;;0.50;0.45;;;;;;;20.93;46.37;100658.34;5306004;26;33524;-86
2023/09/05 00:32:09;;;;;;;0.10;0.10;;;;;;;21.21;45.75;100649.09;5305022;26;33346;-87
2023/09/05 00:34:38;;;;;;;0.50;0.50;;;;;;;20.95;47.07;100656.41;5287284;26;32869;-87
2023/09/05 00:37:07;;;;;;;0.62;0.62;;;;;;;20.76;47.77;100654.22;5286785;26;32863;-88
2023/09/05 00:39:40;;;;;;;1.70;0.75;;;;;;;20.43;48.13;100662.81;5286770;26;33383;-86
2023/09/05 00:42:10;;;;;;;0.10;0.10;;;;;;;20.84;47.19;100651.84;5304369;26;33796;-86
2023/09/05 00:44:39;;;;;;;0.73;0.73;;;;;;;20.59;47.78;100655.41;5306027;26;34031;-86
2023/09/05 00:47:06;;;;;;;0.03;0.03;;;;;;;21.07;46.02;100650.13;5304849;26;33200;-86
2023/09/05 00:49:47;;;;;;;0.57;0.57;;;;;;;20.85;47.11;100647.31;5287008;26;33128;-86
2023/09/05 00:52:18;;;;;;;1.45;0.40;;;;;;;21.11;46.27;100646.25;5304884;26;34578;-87
2023/09/05 00:54:45;;;;;;;0.13;0.13;;;;;;;21.03;46.34;100643.28;5323298;26;33338;-87
2023/09/05 00:57:14;;;;;;;0.20;0.20;;;;;;;20.54;48.44;100636.09;5286813;26;32905;-87
2023/09/05 00:59:43;;;;;;;0.40;0.40;;;;;;;20.62;47.67;100635.56;5286751;26;34234;-87
2023/09/05 01:02:10;;;;;;;0.20;0.20;;;;;;;20.67;47.04;100633.41;5322999;26;34052;-88
2023/09/05 01:04:38;;;;;;;0.62;0.55;;;;;;;20.60;47.24;100632.12;5305414;26;33374;-87
2023/09/05 01:07:12;;;;;;;0.32;0.32;;;;;;;20.68;47.27;100630.59;5287267;26;33733;-87
2023/09/05 01:10:03;;;;;;;0.20;0.20;;;;;;;20.56;47.89;100625.28;5324183;26;33490;-87
2023/09/05 01:12:31;;;;;;;0.10;0.10;;;;;;;21.17;45.80;100621.62;5285279;26;33308;-87
2023/09/05 01:14:58;;;;;;;0.62;0.30;;;;;;;21.27;45.63;100627.19;5284939;26;33120;-88
2023/09/05 01:17:26;;;;;;;0.43;0.43;;;;;;;20.87;46.88;100629.25;5302004;26;34364;-88
2023/09/05 01:19:55;;;;;;;0.60;0.37;;;;;;;20.73;47.57;100626.72;5303581;26;34184;-87
2023/09/05 01:22:35;;;;;;;0.35;0.30;;;;;;;20.95;46.66;100617.00;5284540;26;33672;-85
2023/09/05 01:25:04;;;;;;;0.30;0.10;;;;;;;21.20;46.09;100623.22;5286614;26;33599;-85
2023/09/05 01:27:32;;;;;;;0.40;0.32;;;;;;;21.06;46.28;100621.56;5324037;26;33435;-86
2023/09/05 01:30:00;;;;;;;0.35;0.35;;;;;;;21.27;45.74;100629.84;5287579;26;34420;-87
2023/09/05 01:32:28;;;;;;;2.87;0.98;;;;;;;21.10;45.96;100630.25;5287558;26;33015;-86
2023/09/05 01:34:56;;;;;;;0.37;0.37;;;;;;;21.17;45.87;100632.38;5287523;26;32177;-87
2023/09/05 01:37:23;;;;;;;0.80;0.52;;;;;;;21.09;46.31;100642.81;5305320;26;33562;-86
2023/09/05 01:39:51;;;;;;;0.40;0.40;;;;;;;21.06;46.00;100645.72;5286940;26;32655;-87
2023/09/05 01:42:19;;;;;;;0.22;0.22;;;;;;;21.14;45.97;100631.75;5287503;26;34249;-87
2023/09/05 01:44:46;;;;;;;2.28;0.60;;;;;;;21.04;46.44;100628.88;5287394;26;33923;-87
2023/09/05 01:47:14;;;;;;;0.68;0.68;;;;;;;20.75;47.40;100636.41;5287907;26;32771;-88
2023/09/05 01:49:42;;;;;;;0.65;0.52;;;;;;;20.87;46.75;100631.94;5287609;26;33028;-88
2023/09/05 01:52:09;;;;;;;0.57;0.57;;;;;;;21.28;45.94;100628.03;5305758;26;34463;-87
2023/09/05 01:54:39;;;;;;;0.43;0.37;;;;;;;21.03;46.59;100629.87;5287451;26;33245;-87
2023/09/05 01:57:07;;;;;;;0.50;0.50;;;;;;;21.07;46.36;100625.94;5305106;26;32974;-87
2023/09/05 01:59:34;;;;;;;0.40;0.40;;;;;;;20.97;46.71;100620.41;5287537;26;33435;-88
2023/09/05 02:02:02;;;;;;;0.20;0.20;;;;;;;21.14;46.09;100621.84;5306070;26;33764;-88
2023/09/05 02:04:30;;;;;;;0.28;0.25;;;;;;;21.35;45.51;100613.19;5305951;26;31935;-87
2023/09/05 02:06:58;;;;;;;0.00;0.00;;;;;;;21.21;45.94;100615.03;5324380;26;34689;-88
2023/09/05 02:09:38;;;;;;;0.00;0.00;;;;;;;21.15;45.90;100612.81;5288206;26;33409;-89
2023/09/05 02:12:06;;;;;;;0.98;0.30;;;;;;;21.18;45.76;100611.75;5287837;26;32506;-86
2023/09/05 02:14:36;;;;;;;1.33;0.77;;;;;;;20.93;46.46;100618.06;5287771;26;32823;-86
2023/09/05 02:17:03;;;;;;;0.52;0.52;;;;;;;20.75;46.98;100614.94;5287683;26;34287;-86
2023/09/05 02:19:32;;;;;;;0.45;0.45;;;;;;;20.83;46.70;100617.03;5305181;26;33729;-86
2023/09/05 02:22:02;;;;;;;0.80;0.70;;;;;;;20.92;46.73;100617.22;5306312;26;35345;-86
2023/09/05 02:24:31;;;;;;;0.20;0.20;;;;;;;20.68;47.55;100613.66;5305483;26;32746;-86
2023/09/05 02:27:01;;;;;;;0.50;0.43;;;;;;;21.12;46.07;100621.09;5305129;26;33353;-86
2023/09/05 02:29:30;;;;;;;0.30;0.30;;;;;;;20.80;46.86;100612.75;5287817;26;33480;-86
2023/09/05 02:31:57;;;;;;;0.37;0.20;;;;;;;21.05;46.21;100617.16;5287965;26;32559;-86
2023/09/05 02:34:25;;;;;;;0.57;0.57;;;;;;;20.83;47.04;100619.72;5287784;26;33672;-86
2023/09/05 02:36:54;;;;;;;1.00;0.52;;;;;;;20.74;47.35;100625.75;5288210;26;33910;-87
2023/09/05 02:39:22;;;;;;;0.62;0.62;;;;;;;20.94;46.65;100625.19;5305720;26;33025;-87
2023/09/05 02:41:50;;;;;;;1.62;0.70;;;;;;;21.12;46.08;100623.78;5287674;26;33482;-87
2023/09/05 02:44:18;;;;;;;0.28;0.28;;;;;;;20.94;46.56;100625.19;5305851;26;33558;-87
2023/09/05 02:46:45;;;;;;;1.12;1.08;;;;;;;20.73;47.09;100624.91;5287925;26;33315;-87
2023/09/05 02:49:13;;;;;;;0.40;0.40;;;;;;;20.83;46.93;100630.44;5287346;26;33980;-87
2023/09/05 02:51:41;;;;;;;0.35;0.25;;;;;;;20.98;46.49;100632.00;5305771;26;34626;-86
2023/09/05 02:54:08;;;;;;;0.62;0.62;;;;;;;20.71;47.02;100627.72;5305672;26;33881;-86
2023/09/05 02:56:37;;;;;;;0.62;0.40;;;;;;;20.29;48.42;100634.28;5286957;26;33369;-87
2023/09/05 02:59:05;;;;;;;0.35;0.30;;;;;;;20.44;47.96;100632.34;5305968;26;33625;-86
2023/09/05 03:01:32;;;;;;;0.20;0.20;;;;;;;20.55;47.80;100635.12;5287515;26;33450;-86
2023/09/05 03:04:00;;;;;;;0.00;0.00;;;;;;;20.56;48.06;100636.03;5305635;26;33401;-87
2023/09/05 03:06:29;;;;;;;0.28;0.28;;;;;;;21.02;46.16;100633.50;5305696;26;33736;-87
2023/09/05 03:08:56;;;;;;;0.57;0.32;;;;;;;20.28;47.94;100637.94;5305603;26;34115;-85
2023/09/05 03:11:24;;;;;;;0.43;0.20;;;;;;;20.38;48.47;100649.75;5323777;26;33588;-86
2023/09/05 03:13:52;;;;;;;0.65;0.47;;;;;;;20.24;48.88;100646.31;5287469;26;32713;-86
2023/09/05 03:16:21;;;;;;;0.10;0.10;;;;;;;20.38;48.75;100640.84;5323965;26;33780;-85
2023/09/05 03:18:50;;;;;;;0.10;0.05;;;;;;;20.60;47.65;100632.97;5269155;26;32808;-85
2023/09/05 03:21:19;;;;;;;1.08;0.98;;;;;;;20.68;47.26;100641.34;5323786;26;34980;-85
2023/09/05 03:23:47;;;;;;;0.20;0.20;;;;;;;20.41;48.31;100644.16;5287482;26;33084;-86
2023/09/05 03:26:15;;;;;;;0.57;0.47;;;;;;;20.57;48.02;100637.72;5286762;26;33063;-85
2023/09/05 03:28:44;;;;;;;0.57;0.52;;;;;;;20.83;46.68;100646.56;5305596;26;35213;-85
2023/09/05 03:31:13;;;;;;;0.10;0.10;;;;;;;20.40;48.09;100647.78;5305067;26;33180;-86
2023/09/05 03:33:41;;;;;;;0.10;0.10;;;;;;;20.40;48.19;100657.66;5305639;26;33378;-85
2023/09/05 03:36:11;;;;;;;0.05;0.05;;;;;;;20.36;48.19;100666.91;5323564;26;33658;-86
2023/09/05 03:38:38;;;;;;;0.00;0.00;;;;;;;20.49;47.85;100662.41;5305287;26;33220;-86
2023/09/05 03:41:06;;;;;;;0.70;0.52;;;;;;;20.40;47.89;100657.66;5305303;26;34061;-87
2023/09/05 03:43:34;;;;;;;0.22;0.22;;;;;;;20.58;47.68;100663.59;5287577;26;33729;-86
2023/09/05 03:46:02;;;;;;;0.35;0.35;;;;;;;20.32;48.27;100671.63;5305121;26;32958;-86
2023/09/05 03:48:29;;;;;;;0.20;0.20;;;;;;;20.14;49.50;100673.78;5305032;26;33141;-86
2023/09/05 03:50:57;;;;;;;0.35;0.30;;;;;;;20.33;48.69;100667.13;5305092;26;34215;-87
2023/09/05 03:53:25;;;;;;;0.30;0.25;;;;;;;20.12;49.29;100670.34;5287032;26;32596;-86
2023/09/05 03:55:53;;;;;;;0.28;0.28;;;;;;;20.23;49.09;100674.97;5286574;26;33501;-87
2023/09/05 03:58:21;;;;;;;0.00;0.00;;;;;;;20.13;49.52;100676.53;5305381;26;33641;-87
2023/09/05 04:00:48;;;;;;;1.55;1.08;;;;;;;20.23;49.25;100687.53;5305004;26;33896;-87
2023/09/05 04:03:16;;;;;;;0.17;0.17;;;;;;;19.83;50.86;100679.53;5323974;26;33325;-87
2023/09/05 04:05:44;;;;;;;2.30;1.15;;;;;;;20.06;50.46;100680.63;5305665;26;33909;-87
2023/09/05 04:08:12;;;;;;;0.00;0.00;;;;;;;19.87;51.75;100686.41;5287015;26;33384;-87
2023/09/05 04:10:40;;;;;;;0.20;0.17;;;;;;;19.72;51.53;100679.41;5304934;26;33716;-85
2023/09/05 04:13:08;;;;;;;0.40;0.40;;;;;;;19.38;52.73;100684.31;5304946;26;33758;-88
2023/09/05 04:15:36;;;;;;;0.10;0.10;;;;;;;19.47;52.35;100691.75;5305862;26;33979;-88
2023/09/05 04:18:04;;;;;;;0.25;0.25;;;;;;;19.22;53.29;100688.94;5305204;26;34723;-88
2023/09/05 04:20:33;;;;;;;1.05;0.52;;;;;;;19.21;53.71;100693.44;5323809;26;33877;-88
2023/09/05 04:23:00;;;;;;;0.40;0.40;;;;;;;19.35;53.07;100689.88;5304521;26;32309;-87
2023/09/05 04:25:29;;;;;;;0.30;0.30;;;;;;;19.26;53.33;100694.00;5286385;26;33210;-87
2023/09/05 04:27:57;;;;;;;0.35;0.20;;;;;;;19.02;54.60;100692.94;5287515;26;32541;-87
2023/09/05 04:30:24;;;;;;;0.62;0.30;;;;;;;19.04;53.99;100691.91;5305099;26;33565;-86
2023/09/05 04:33:10;;;;;;;0.25;0.10;;;;;;;19.05;54.52;100687.41;5286418;26;33544;-86
2023/09/05 04:35:52;;;;;;;3.55;0.98;;;;;;;19.22;54.38;100695.16;5306110;26;32592;-86
2023/09/05 04:38:21;;;;;;;0.25;0.17;;;;;;;19.06;55.21;100699.81;5303645;26;34242;-84
2023/09/05 04:40:49;;;;;;;2.78;0.98;;;;;;;19.11;54.96;100693.19;5301958;26;32676;-87
2023/09/05 04:43:18;;;;;;;0.57;0.57;;;;;;;19.02;55.55;100699.13;5285229;26;33512;-85
2023/09/05 04:45:54;;;;;;;0.55;0.45;;;;;;;18.93;55.78;100694.37;5302994;26;33456;-86
2023/09/05 04:48:22;;;;;;;0.40;0.40;;;;;;;18.89;55.63;100703.56;5302657;26;33160;-86
2023/09/05 04:50:50;;;;;;;0.82;0.77;;;;;;;19.09;55.40;100704.97;5321014;26;32966;-86
2023/09/05 04:53:18;;;;;;;0.28;0.28;;;;;;;18.83;56.58;100698.59;5321046;26;33833;-88
2023/09/05 04:55:47;;;;;;;4.43;0.20;;;;;;;18.92;55.94;100706.03;5283878;26;33735;-85
2023/09/05 04:58:15;;;;;;;0.30;0.30;;;;;;;18.91;56.23;100699.84;5285588;26;33455;-88
2023/09/05 05:00:43;;;;;;;0.73;0.65;;;;;;;19.01;56.40;100707.28;5284328;26;34320;-87
2023/09/05 05:03:11;;;;;;;0.45;0.32;;;;;;;19.01;56.57;100710.81;5284705;26;33017;-87
2023/09/05 05:05:41;;;;;;;1.77;0.85;;;;;;;19.24;56.03;100714.69;5303005;26;32896;-86
2023/09/05 05:08:08;;;;;;;0.35;0.35;;;;;;;19.28;56.17;100716.22;5320038;26;33043;-87
2023/09/05 05:10:39;;;;;;;0.45;0.45;;;;;;;19.37;55.96;100714.72;5284428;26;33254;-88
2023/09/05 05:13:07;;;;;;;12.68;2.42;;;;;;;19.62;55.65;100725.56;5303269;26;34653;-88
2023/09/05 05:15:34;;;;;;;0.90;0.35;;;;;;;19.54;56.29;100724.34;5284745;26;32927;-87
2023/09/05 05:18:02;;;;;;;10.43;1.00;;;;;;;19.45;55.53;100715.06;5283141;26;34699;-87
2023/09/05 05:20:31;;;;;;;1.60;0.82;;;;;;;19.31;55.92;100718.66;5285165;26;33193;-87
2023/09/05 05:22:59;;;;;;;0.68;0.45;;;;;;;19.18;56.17;100721.31;5284511;26;33523;-87
2023/09/05 05:25:26;;;;;;;0.93;0.57;;;;;;;19.34;55.88;100714.94;5288052;26;34248;-87
2023/09/05 05:27:54;;;;;;;0.35;0.35;;;;;;;19.69;55.00;100718.84;5288770;26;32936;-86
2023/09/05 05:30:22;;;;;;;0.10;0.10;;;;;;;20.11;51.31;100719.56;5285221;26;32905;-87
2023/09/05 05:32:49;;;;;;;0.28;0.22;;;;;;;19.90;52.66;100718.37;5286725;26;32037;-87
2023/09/05 05:35:17;;;;;;;0.50;0.32;;;;;;;19.97;52.84;100725.00;5286524;26;34065;-88
2023/09/05 05:37:44;;;;;;;0.20;0.20;;;;;;;20.06;52.83;100721.72;5324291;26;34300;-86
2023/09/05 05:40:13;;;;;;;1.08;0.65;;;;;;;20.11;52.28;100721.37;5286314;26;33738;-86
2023/09/05 05:42:41;;;;;;;0.88;0.60;;;;;;;20.37;51.25;100707.03;5305706;26;34215;-86
2023/09/05 05:45:10;;;;;;;0.25;0.22;;;;;;;20.37;52.18;100714.22;5305721;26;34065;-86
2023/09/05 05:47:37;;;;;;;0.20;0.20;;;;;;;20.44;50.91;100718.19;5305345;26;34510;-86
2023/09/05 05:50:06;;;;;;;0.85;0.73;;;;;;;20.57;51.11;100723.59;5287755;26;34116;-87
2023/09/05 05:52:34;;;;;;;0.68;0.55;;;;;;;20.93;50.78;100714.72;5304697;26;33055;-86
2023/09/05 05:55:01;;;;;;;0.25;0.25;;;;;;;21.10;50.67;100717.03;5305949;26;34318;-86
2023/09/05 05:57:29;;;;;;;0.30;0.30;;;;;;;21.28;49.32;100713.97;5287750;26;33718;-86
2023/09/05 05:59:57;;;;;;;0.30;0.20;;;;;;;21.61;47.54;100713.31;5287776;26;32909;-87
2023/09/05 06:02:25;;;;;;;1.12;0.93;;;;;;;21.26;48.83;100715.91;5287689;26;32693;-86
2023/09/05 06:04:53;;;;;;;0.57;0.40;;;;;;;21.50;47.66;100714.09;5287793;26;33195;-86
2023/09/05 06:07:21;;;;;;;0.57;0.57;;;;;;;21.45;48.11;100710.91;5287548;26;33387;-86
2023/09/05 06:09:49;;;;;;;0.37;0.32;;;;;;;22.11;45.37;100704.09;5323972;26;33720;-87
2023/09/05 06:12:17;;;;;;;0.03;0.00;;;;;;;22.24;46.90;100704.00;5306054;26;34100;-87
2023/09/05 06:14:45;;;;;;;1.83;0.30;;;;;;;22.11;44.85;100712.16;5324026;26;33999;-87
2023/09/05 06:17:12;;;;;;;0.20;0.20;;;;;;;22.52;43.29;100691.94;5287976;26;34104;-86
2023/09/05 06:19:40;;;;;;;0.62;0.62;;;;;;;22.54;44.71;100699.88;5287383;26;32658;-86
2023/09/05 06:22:10;;;;;;;0.25;0.25;;;;;;;22.50;44.64;100699.25;5323619;26;33523;-87
2023/09/05 06:24:40;;;;;;;0.65;0.65;;;;;;;22.88;43.75;100703.41;5286173;26;34651;-87
2023/09/05 06:27:10;;;;;;;0.77;0.45;;;;;;;22.82;42.97;100698.53;5287124;26;35251;-87
2023/09/05 06:29:37;;;;;;;1.92;0.90;;;;;;;22.91;43.99;100693.28;5286713;26;33332;-87
2023/09/05 06:32:05;;;;;;;3.08;0.75;;;;;;;22.87;42.91;100702.53;5305554;26;33179;-87
2023/09/05 06:34:33;;;;;;;0.52;0.45;;;;;;;22.87;43.38;100701.69;5305593;26;32459;-87
2023/09/05 06:37:01;;;;;;;0.80;0.68;;;;;;;22.77;43.89;100706.12;5324011;26;34608;-87
2023/09/05 06:39:29;;;;;;;0.65;0.60;;;;;;;23.18;43.46;100709.03;5305422;26;33814;-87
2023/09/05 06:41:58;;;;;;;0.25;0.25;;;;;;;23.16;42.71;100702.03;5323375;26;32056;-87
2023/09/05 06:44:30;;;;;;;0.10;0.10;;;;;;;23.63;40.95;100706.19;5306263;26;33951;-87
2023/09/05 06:46:58;;;;;;;0.32;0.32;;;;;;;23.25;41.31;100706.69;5305904;26;34004;-87
2023/09/05 06:49:26;;;;;;;0.50;0.47;;;;;;;23.39;41.84;100698.31;5306001;26;34284;-87
2023/09/05 06:51:54;;;;;;;0.20;0.20;;;;;;;23.62;41.74;100709.88;5305749;26;33427;-87
2023/09/05 06:54:21;;;;;;;1.08;0.52;;;;;;;23.50;41.42;100710.91;5323849;26;33910;-87
2023/09/05 06:56:49;;;;;;;2.58;0.65;;;;;;;23.79;41.19;100719.28;5287734;26;33227;-87
2023/09/05 06:59:17;;;;;;;0.30;0.30;;;;;;;23.68;42.30;100703.12;5287705;26;32763;-87
2023/09/05 07:01:45;;;;;;;0.75;0.20;;;;;;;23.92;40.67;100708.28;5324059;26;32478;-87
2023/09/05 07:04:13;;;;;;;0.00;0.00;;;;;;;23.28;41.42;100698.34;5305303;26;32891;-87
2023/09/05 07:06:40;;;;;;;1.35;0.62;;;;;;;23.25;42.03;100702.16;5287688;26;32770;-87
2023/09/05 07:09:09;;;;;;;0.32;0.32;;;;;;;23.29;41.39;100707.28;5269875;26;32695;-87
2023/09/05 07:11:36;;;;;;;0.30;0.20;;;;;;;23.69;40.86;100711.13;5287675;26;32594;-87
2023/09/05 07:14:04;;;;;;;0.17;0.17;;;;;;;23.41;41.66;100711.69;5323854;26;33759;-87
2023/09/05 07:16:32;;;;;;;0.37;0.37;;;;;;;23.75;41.57;100715.13;5305573;26;33401;-87
2023/09/05 07:18:59;;;;;;;2.70;0.65;;;;;;;23.89;41.00;100711.25;5305862;26;33498;-87
2023/09/05 07:21:28;;;;;;;1.85;0.85;;;;;;;23.51;41.35;100710.78;5324317;26;33405;-87
2023/09/05 07:23:55;;;;;;;0.20;0.20;;;;;;;23.88;40.46;100713.09;5287597;26;34059;-87
2023/09/05 07:26:23;;;;;;;1.92;1.02;;;;;;;23.70;41.77;100710.12;5287817;26;34052;-87
2023/09/05 07:28:51;;;;;;;0.50;0.35;;;;;;;23.70;41.44;100711.97;5305442;26;33515;-87
2023/09/05 07:31:19;;;;;;;0.65;0.62;;;;;;;23.89;40.03;100716.66;5306092;26;33631;-87
2023/09/05 07:33:47;;;;;;;0.47;0.37;;;;;;;23.79;41.79;100718.44;5305737;26;34100;-87
2023/09/05 07:36:15;;;;;;;0.52;0.52;;;;;;;23.21;41.59;100713.31;5287335;26;33608;-87
2023/09/05 07:38:43;;;;;;;10.57;0.55;;;;;;;23.47;41.55;100717.41;5304825;26;33222;-88
2023/09/05 07:41:11;;;;;;;0.52;0.37;;;;;;;23.86;41.97;100716.91;5304394;26;33829;-88
2023/09/05 07:43:38;;;;;;;1.67;1.00;;;;;;;23.92;41.14;100724.47;5286624;26;32699;-88
2023/09/05 07:46:06;;;;;;;0.20;0.20;;;;;;;24.00;41.17;100719.28;5287334;26;32495;-88
2023/09/05 07:48:34;;;;;;;1.00;0.57;;;;;;;23.68;41.38;100714.78;5323263;26;34281;-88
2023/09/05 07:51:04;;;;;;;1.12;0.57;;;;;;;23.97;42.17;100719.53;5323287;26;33891;-89
2023/09/05 07:53:37;;;;;;;0.27;0.27;;;;;;;24.44;40.68;100725.41;5287505;26;34339;-88
2023/09/05 07:56:05;;;;;;;0.82;0.55;;;;;;;24.05;39.97;100727.00;5305480;26;32397;-91
2023/09/05 07:58:34;;;;;;;5.62;1.00;;;;;;;24.08;40.83;100735.69;5287221;26;32820;-88
2023/09/05 08:01:01;;;;;;;0.10;0.10;;;;;;;24.44;39.66;100722.72;5305031;26;32896;-88
2023/09/05 08:03:29;;;;;;;0.40;0.40;;;;;;;24.07;40.40;100730.41;5286714;26;32348;-87
2023/09/05 08:05:57;;;;;;;0.60;0.57;;;;;;;24.14;40.44;100732.44;5305095;26;33858;-88
2023/09/05 08:08:24;;;;;;;0.62;0.57;;;;;;;24.36;39.43;100727.91;5286168;26;33150;-88
2023/09/05 08:10:53;;;;;;;0.20;0.20;;;;;;;24.52;40.73;100731.00;5305507;26;33071;-88
2023/09/05 08:13:21;;;;;;;0.37;0.37;;;;;;;24.61;40.19;100723.94;5305172;26;33018;-88
2023/09/05 08:15:50;;;;;;;1.05;0.95;;;;;;;24.45;39.46;100727.12;5286462;26;33100;-88
2023/09/05 08:18:19;;;;;;;0.68;0.57;;;;;;;24.49;40.16;100725.88;5306234;26;34075;-88
2023/09/05 08:20:46;;;;;;;0.80;0.65;;;;;;;24.42;39.63;100724.72;5287329;26;32585;-87
2023/09/05 08:23:14;;;;;;;0.20;0.20;;;;;;;24.86;39.09;100719.94;5287637;26;32503;-87
2023/09/05 08:25:51;;;;;;;0.98;0.40;;;;;;;24.77;38.94;100721.59;5324354;26;33744;-88
2023/09/05 08:28:18;;;;;;;1.25;1.02;;;;;;;24.61;39.45;100719.41;5306954;26;33808;-88
2023/09/05 08:30:47;;;;;;;2.10;0.60;;;;;;;24.90;39.15;100715.97;5306163;26;32601;-87
2023/09/05 08:33:14;;;;;;;0.52;0.20;;;;;;;25.08;38.20;100710.78;5288145;26;33643;-87
2023/09/05 08:35:42;;;;;;;0.40;0.25;;;;;;;25.45;39.54;100709.16;5305609;26;32846;-86
2023/09/05 08:38:13;;;;;;;0.80;0.75;;;;;;;25.54;37.52;100710.12;5287190;26;33005;-87
2023/09/05 08:40:45;;;;;;;0.55;0.45;;;;;;;25.38;37.81;100704.44;5287172;26;32977;-87
2023/09/05 08:43:16;;;;;;;1.00;0.73;;;;;;;25.82;37.00;100703.06;5303240;26;33614;-87
2023/09/05 08:45:45;;;;;;;37.90;1.40;;;;;;;25.83;38.56;100698.50;5305638;26;33811;-86
2023/09/05 08:48:13;;;;;;;0.32;0.32;;;;;;;25.74;36.92;100700.19;5306403;26;35050;-87
2023/09/05 08:50:41;;;;;;;0.98;0.62;;;;;;;25.62;37.31;100702.19;5287543;26;32877;-87
2023/09/05 08:53:10;;;;;;;0.30;0.30;;;;;;;25.53;37.88;100694.91;5287838;26;32537;-87
2023/09/05 08:55:40;;;;;;;0.73;0.70;;;;;;;25.59;37.81;100683.56;5305259;26;32972;-87
2023/09/05 08:58:13;;;;;;;0.57;0.57;;;;;;;25.67;37.16;100690.94;5306134;26;32989;-87
2023/09/05 09:00:43;;;;;;;0.40;0.40;;;;;;;25.71;37.91;100695.91;5306117;26;34035;-87
2023/09/05 09:03:11;;;;;;;0.08;0.08;;;;;;;26.28;37.24;100686.03;5306362;26;33993;-87
2023/09/05 09:05:39;;;;;;;0.30;0.30;;;;;;;26.43;36.41;100689.16;5287826;26;33256;-87
2023/09/05 09:08:07;;;;;;;0.32;0.30;;;;;;;26.27;36.79;100681.63;5305721;26;32841;-87
2023/09/05 09:10:35;;;;;;;0.95;0.50;;;;;;;26.68;36.08;100675.94;5304883;26;32218;-87
2023/09/05 09:13:15;;;;;;;1.30;0.73;;;;;;;26.84;35.89;100672.59;5305740;26;33560;-87
2023/09/05 09:15:44;;;;;;;1.85;0.40;;;;;;;26.78;35.28;100672.19;5306652;26;33553;-86
2023/09/05 09:18:13;;;;;;;0.20;0.20;;;;;;;26.43;35.70;100658.50;5305036;26;33930;-87
2023/09/05 09:20:45;;;;;;;0.47;0.28;;;;;;;26.51;36.09;100666.75;5283402;26;33463;-87
2023/09/05 09:23:24;;;;;;;0.62;0.52;;;;;;;26.78;35.33;100657.78;5302759;26;33389;-87
2023/09/05 09:25:54;;;;;;;0.20;0.20;;;;;;;26.78;35.45;100655.09;5286766;26;33220;-88
2023/09/05 09:28:23;;;;;;;0.43;0.43;;;;;;;26.85;35.49;100666.16;5305818;26;33110;-86
2023/09/05 09:31:01;;;;;;;0.88;0.57;;;;;;;26.71;34.77;100654.81;5305341;26;33423;-87
2023/09/05 09:33:31;;;;;;;1.08;0.60;;;;;;;26.73;35.90;100658.25;5306036;26;32638;-87
2023/09/05 09:36:09;;;;;;;0.30;0.30;;;;;;;26.96;35.50;100646.97;5306406;26;33446;-87
2023/09/05 09:38:48;;;;;;;1.45;0.55;;;;;;;26.85;34.84;100650.75;5306934;26;34802;-87
2023/09/05 09:41:20;;;;;;;0.60;0.52;;;;;;;27.13;34.29;100643.47;5305356;26;33435;-86
2023/09/05 09:43:53;;;;;;;0.80;0.22;;;;;;;26.81;35.07;100639.34;5324784;26;34446;-86
2023/09/05 09:46:22;;;;;;;0.65;0.50;;;;;;;27.18;34.36;100640.31;5305917;26;33895;-86
2023/09/05 09:48:52;;;;;;;0.98;0.75;;;;;;;27.14;34.99;100636.19;5306595;26;35191;-87
2023/09/05 09:51:23;;;;;;;1.15;0.98;;;;;;;27.07;33.58;100638.62;5287418;26;33642;-87
2023/09/05 09:53:53;;;;;;;3.10;1.10;;;;;;;26.99;33.75;100641.25;5286635;26;32817;-86
2023/09/05 09:56:22;;;;;;;0.95;0.65;;;;;;;27.15;35.17;100649.59;5286628;26;33231;-87
2023/09/05 09:58:51;;;;;;;0.10;0.10;;;;;;;26.72;34.80;100656.50;5305856;26;33816;-87
2023/09/05 10:01:19;;;;;;;2.05;0.65;;;;;;;26.80;34.35;100648.50;5286309;26;32490;-87
2023/09/05 10:03:48;;;;;;;0.47;0.47;;;;;;;26.65;35.66;100644.59;5304609;26;33934;-87
2023/09/05 10:06:16;;;;;;;0.10;0.10;;;;;;;27.05;34.33;100646.06;5323030;26;33601;-87
2023/09/05 10:08:44;;;;;;;0.20;0.20;;;;;;;27.02;34.12;100635.53;5323468;26;33220;-87
2023/09/05 10:11:14;;;;;;;0.30;0.30;;;;;;;27.04;34.14;100633.50;5304889;26;33596;-87
2023/09/05 10:13:43;;;;;;;0.25;0.08;;;;;;;27.20;34.71;100632.84;5304977;26;33464;-87
2023/09/05 10:16:11;;;;;;;0.43;0.43;;;;;;;26.72;34.38;100632.12;5304999;26;33735;-87
2023/09/05 10:18:44;;;;;;;4.85;0.62;;;;;;;27.23;33.97;100640.69;5306205;26;33267;-87
2023/09/05 10:21:12;;;;;;;0.45;0.45;;;;;;;26.78;34.41;100631.53;5304947;26;31996;-87
2023/09/05 10:23:40;;;;;;;4.03;1.55;;;;;;;26.94;34.54;100632.72;5305137;26;33597;-87
2023/09/05 10:26:08;;;;;;;1.42;0.68;;;;;;;26.88;34.27;100627.94;5305111;26;33122;-87
2023/09/05 10:28:37;;;;;;;3.40;0.47;;;;;;;26.92;33.93;100615.75;5286370;26;32928;-87
2023/09/05 10:31:07;;;;;;;0.57;0.57;;;;;;;27.11;34.99;100612.97;5286600;26;32189;-87
2023/09/05 10:33:39;;;;;;;2.35;1.02;;;;;;;27.06;35.22;100615.22;5304936;26;34060;-87
2023/09/05 10:36:39;;;;;;;0.43;0.43;;;;;;;27.41;34.70;100614.44;5304466;26;34349;-86
2023/09/05 10:39:25;;;;;;;0.70;0.60;;;;;;;27.46;34.37;100605.81;5286022;26;32757;-87
2023/09/05 10:41:53;;;;;;;0.32;0.32;;;;;;;27.57;34.72;100608.28;5323133;26;32822;-87
2023/09/05 10:44:24;;;;;;;0.35;0.15;;;;;;;27.61;33.21;100606.97;5322847;26;34722;-87
2023/09/05 10:46:53;;;;;;;3.00;1.17;;;;;;;27.61;34.47;100603.41;5305032;26;33605;-87
2023/09/05 10:49:21;;;;;;;0.32;0.32;;;;;;;28.13;33.39;100595.28;5286662;26;34298;-87
2023/09/05 10:52:18;;;;;;;0.80;0.75;;;;;;;28.43;32.87;100586.63;5287029;26;32978;-87
2023/09/05 10:54:47;;;;;;;2.30;0.77;;;;;;;28.23;32.75;100586.00;5305889;26;35463;-87
2023/09/05 10:57:34;;;;;;;0.70;0.50;;;;;;;28.67;33.43;100580.44;5286599;26;32929;-87
2023/09/05 11:00:15;;;;;;;0.10;0.10;;;;;;;28.43;32.01;100583.06;5305130;26;33716;-87
2023/09/05 11:02:43;;;;;;;0.28;0.28;;;;;;;28.37;32.70;100590.00;5304435;26;33699;-86
2023/09/05 11:05:19;;;;;;;1.65;0.73;;;;;;;28.56;31.48;100588.91;5287576;26;33378;-87
2023/09/05 11:07:48;;;;;;;0.30;0.22;;;;;;;28.88;32.63;100577.28;5288636;26;33248;-88
2023/09/05 11:10:34;;;;;;;0.40;0.40;;;;;;;28.30;31.92;100578.94;5287714;26;33611;-87
2023/09/05 11:13:11;;;;;;;0.10;0.10;;;;;;;28.18;31.44;100579.37;5306375;26;33441;-87
2023/09/05 11:15:43;;;;;;;0.10;0.10;;;;;;;28.35;31.81;100569.47;5305309;26;33276;-87
2023/09/05 11:18:12;;;;;;;;;;;;;;;28.81;32.59;100577.06;5288646;26;32596;-88
2023/09/05 11:20:45;;;;;;;0.20;0.20;;;;;;;29.07;31.88;100576.16;5324326;26;33900;-87
2023/09/05 11:23:13;;;;;;;0.20;0.20;;;;;;;29.01;31.75;100571.41;5287839;26;32899;-88
2023/09/05 11:25:46;;;;;;;0.55;0.55;;;;;;;28.99;31.48;100567.97;5305508;26;33527;-88
2023/09/05 11:28:15;;;;;;;0.37;0.20;;;;;;;29.16;31.45;100574.31;5305932;26;34136;-88
2023/09/05 11:30:45;;;;;;;0.32;0.32;;;;;;;28.81;31.29;100573.50;5323801;26;33230;-87
2023/09/05 11:33:14;;;;;;;1.10;0.85;;;;;;;28.51;32.26;100570.38;5305853;26;33376;-88
2023/09/05 11:35:43;;;;;;;0.32;0.32;;;;;;;29.07;31.12;100566.13;5305301;26;32674;-87